sensor_id;sensor_type;location;lat;lon;timestamp;pressure;altitude;pressure_sealevel;temperature;humidity
28797;BME280;24974;54.444;18.560;2022-08-25T04:14:25;101897.13;;;21.94;81.61
28797;BME280;24974;54.444;18.560;2022-08-25T04:16:56;101893.97;;;22.40;79.93
28797;BME280;24974;54.444;18.560;2022-08-25T04:19:27;101896.31;;;22.53;79.32
28797;BME280;24974;54.444;18.560;2022-08-25T04:21:58;101899.47;;;22.52;79.67
28797;BME280;24974;54.444;18.560;2022-08-25T04:24:29;101907.59;;;22.73;78.45
28797;BME280;24974;54.444;18.560;2022-08-25T04:26:59;101896.47;;;22.76;78.11
28797;BME280;24974;54.444;18.560;2022-08-25T04:29:30;101906.06;;;22.59;78.89
28797;BME280;24974;54.444;18.560;2022-08-25T04:32:02;101901.19;;;23.04;77.25
28797;BME280;24974;54.444;18.560;2022-08-25T04:34:33;101897.47;;;22.68;78.48
28797;BME280;24974;54.444;18.560;2022-08-25T04:37:04;101901.47;;;22.67;78.59
28797;BME280;24974;54.444;18.560;2022-08-25T04:39:37;101904.72;;;22.85;77.50
28797;BME280;24974;54.444;18.560;2022-08-25T04:42:07;101900.72;;;23.02;77.34
28797;BME280;24974;54.444;18.560;2022-08-25T04:44:38;101906.00;;;22.72;78.24
28797;BME280;24974;54.444;18.560;2022-08-25T04:47:09;101904.69;;;23.01;77.53
28797;BME280;24974;54.444;18.560;2022-08-25T04:49:40;101908.88;;;22.91;77.79
28797;BME280;24974;54.444;18.560;2022-08-25T04:52:12;101905.78;;;23.12;77.65
28797;BME280;24974;54.444;18.560;2022-08-25T04:54:43;101901.53;;;23.02;77.66
28797;BME280;24974;54.444;18.560;2022-08-25T04:57:14;101904.97;;;23.11;77.50
28797;BME280;24974;54.444;18.560;2022-08-25T04:59:46;101903.78;;;23.12;77.23
28797;BME280;24974;54.444;18.560;2022-08-25T05:02:17;101902.34;;;23.38;76.06
28797;BME280;24974;54.444;18.560;2022-08-25T05:04:49;101901.94;;;23.20;76.68
28797;BME280;24974;54.444;18.560;2022-08-25T05:07:19;101895.59;;;23.23;76.96
28797;BME280;24974;54.444;18.560;2022-08-25T05:09:50;101897.38;;;23.31;76.52
28797;BME280;24974;54.444;18.560;2022-08-25T05:12:21;101902.34;;;23.38;76.29
28797;BME280;24974;54.444;18.560;2022-08-25T05:14:52;101894.78;;;23.42;76.06
28797;BME280;24974;54.444;18.560;2022-08-25T05:17:23;101894.34;;;23.75;74.93
28797;BME280;24974;54.444;18.560;2022-08-25T05:19:54;101892.41;;;23.60;75.30
28797;BME280;24974;54.444;18.560;2022-08-25T05:22:25;101886.63;;;23.53;74.99
28797;BME280;24974;54.444;18.560;2022-08-25T05:24:56;101886.63;;;23.53;75.11
28797;BME280;24974;54.444;18.560;2022-08-25T05:27:27;101884.53;;;23.50;75.38
28797;BME280;24974;54.444;18.560;2022-08-25T05:29:58;101879.38;;;23.32;75.71
28797;BME280;24974;54.444;18.560;2022-08-25T05:32:29;101886.19;;;23.51;75.15
28797;BME280;24974;54.444;18.560;2022-08-25T05:35:00;101880.19;;;23.52;75.56
28797;BME280;24974;54.444;18.560;2022-08-25T05:37:31;101881.00;;;23.53;75.20
28797;BME280;24974;54.444;18.560;2022-08-25T05:40:03;101877.97;;;23.81;74.25
28797;BME280;24974;54.444;18.560;2022-08-25T05:42:35;101876.34;;;23.41;75.54
28797;BME280;24974;54.444;18.560;2022-08-25T05:45:07;101874.66;;;23.56;74.74
28797;BME280;24974;54.444;18.560;2022-08-25T05:47:39;101872.06;;;23.47;75.04
28797;BME280;24974;54.444;18.560;2022-08-25T05:50:11;101869.13;;;23.59;74.41
28797;BME280;24974;54.444;18.560;2022-08-25T05:52:42;101873.22;;;23.62;74.16
28797;BME280;24974;54.444;18.560;2022-08-25T05:55:13;101871.41;;;23.54;74.36
28797;BME280;24974;54.444;18.560;2022-08-25T05:57:45;101881.75;;;23.88;73.65
28797;BME280;24974;54.444;18.560;2022-08-25T06:00:16;101884.16;;;23.90;73.73
28797;BME280;24974;54.444;18.560;2022-08-25T06:02:48;101883.97;;;23.98;73.07
28797;BME280;24974;54.444;18.560;2022-08-25T06:05:21;101890.81;;;23.82;73.83
28797;BME280;24974;54.444;18.560;2022-08-25T06:07:52;101889.31;;;24.30;71.97
28797;BME280;24974;54.444;18.560;2022-08-25T06:10:24;101890.16;;;24.08;73.01
28797;BME280;24974;54.444;18.560;2022-08-25T06:12:55;101888.34;;;24.19;72.71
28797;BME280;24974;54.444;18.560;2022-08-25T06:15:26;101895.31;;;24.28;71.92
28797;BME280;24974;54.444;18.560;2022-08-25T06:17:58;101901.09;;;24.36;71.52
28797;BME280;24974;54.444;18.560;2022-08-25T06:20:31;101896.25;;;24.33;71.37
28797;BME280;24974;54.444;18.560;2022-08-25T06:23:02;101895.09;;;24.37;71.53
28797;BME280;24974;54.444;18.560;2022-08-25T06:25:33;101894.94;;;24.30;71.42
28797;BME280;24974;54.444;18.560;2022-08-25T06:28:04;101894.28;;;24.37;71.06
28797;BME280;24974;54.444;18.560;2022-08-25T06:30:37;101893.63;;;24.70;70.25
28797;BME280;24974;54.444;18.560;2022-08-25T06:33:09;101899.91;;;24.86;69.71
28797;BME280;24974;54.444;18.560;2022-08-25T06:35:42;101911.09;;;24.79;70.27
28797;BME280;24974;54.444;18.560;2022-08-25T06:38:13;101904.25;;;25.03;69.37
28797;BME280;24974;54.444;18.560;2022-08-25T06:40:46;101900.59;;;25.29;68.77
28797;BME280;24974;54.444;18.560;2022-08-25T06:43:21;101900.63;;;25.32;68.54
28797;BME280;24974;54.444;18.560;2022-08-25T06:45:51;101903.50;;;24.83;69.25
28797;BME280;24974;54.444;18.560;2022-08-25T06:48:22;101903.63;;;25.17;68.43
28797;BME280;24974;54.444;18.560;2022-08-25T06:50:53;101900.44;;;25.48;67.04
28797;BME280;24974;54.444;18.560;2022-08-25T06:53:24;101899.84;;;25.05;68.22
28797;BME280;24974;54.444;18.560;2022-08-25T06:55:56;101903.03;;;25.30;67.76
28797;BME280;24974;54.444;18.560;2022-08-25T06:58:27;101900.38;;;25.15;68.46
28797;BME280;24974;54.444;18.560;2022-08-25T07:01:19;101905.88;;;25.64;66.91
28797;BME280;24974;54.444;18.560;2022-08-25T07:03:54;101910.19;;;25.88;66.33
28797;BME280;24974;54.444;18.560;2022-08-25T07:06:29;101915.19;;;25.68;67.29
28797;BME280;24974;54.444;18.560;2022-08-25T07:09:03;101917.13;;;25.98;66.21
28797;BME280;24974;54.444;18.560;2022-08-25T07:11:34;101913.16;;;25.69;66.43
28797;BME280;24974;54.444;18.560;2022-08-25T07:14:07;101919.44;;;25.85;65.80
28797;BME280;24974;54.444;18.560;2022-08-25T07:16:39;101917.19;;;25.37;67.39
28797;BME280;24974;54.444;18.560;2022-08-25T07:19:10;101918.94;;;25.79;66.12
28797;BME280;24974;54.444;18.560;2022-08-25T07:21:42;101916.91;;;25.76;66.41
28797;BME280;24974;54.444;18.560;2022-08-25T07:24:15;101916.00;;;25.69;67.14
28797;BME280;24974;54.444;18.560;2022-08-25T07:26:46;101919.91;;;25.60;67.35
28797;BME280;24974;54.444;18.560;2022-08-25T07:29:21;101918.16;;;25.79;66.64
28797;BME280;24974;54.444;18.560;2022-08-25T07:31:52;101926.44;;;25.68;66.92
28797;BME280;24974;54.444;18.560;2022-08-25T07:34:23;101927.84;;;25.51;66.78
28797;BME280;24974;54.444;18.560;2022-08-25T07:37:12;101933.38;;;25.44;67.33
28797;BME280;24974;54.444;18.560;2022-08-25T07:39:43;101932.94;;;25.72;65.93
28797;BME280;24974;54.444;18.560;2022-08-25T07:42:13;101937.19;;;25.29;67.12
28797;BME280;24974;54.444;18.560;2022-08-25T07:44:44;101942.84;;;25.32;67.08
28797;BME280;24974;54.444;18.560;2022-08-25T07:47:15;101940.09;;;25.36;67.02
28797;BME280;24974;54.444;18.560;2022-08-25T07:49:46;101942.19;;;25.43;66.86
28797;BME280;24974;54.444;18.560;2022-08-25T07:52:17;101937.69;;;25.38;67.06
28797;BME280;24974;54.444;18.560;2022-08-25T07:54:48;101951.94;;;25.22;67.82
28797;BME280;24974;54.444;18.560;2022-08-25T07:57:18;101948.56;;;25.39;67.21
28797;BME280;24974;54.444;18.560;2022-08-25T07:59:51;101957.28;;;25.31;67.93
28797;BME280;24974;54.444;18.560;2022-08-25T08:02:22;101962.06;;;25.27;67.63
28797;BME280;24974;54.444;18.560;2022-08-25T08:04:53;101953.50;;;25.46;67.22
28797;BME280;24974;54.444;18.560;2022-08-25T08:07:25;101958.50;;;25.03;68.54
28797;BME280;24974;54.444;18.560;2022-08-25T08:09:57;101962.09;;;25.30;68.02
28797;BME280;24974;54.444;18.560;2022-08-25T08:12:27;101967.38;;;25.05;68.39
28797;BME280;24974;54.444;18.560;2022-08-25T08:14:58;101967.47;;;25.13;68.41
28797;BME280;24974;54.444;18.560;2022-08-25T08:17:29;101976.19;;;24.81;69.74
28797;BME280;24974;54.444;18.560;2022-08-25T08:20:02;101971.75;;;25.03;68.83
28797;BME280;24974;54.444;18.560;2022-08-25T08:22:38;101976.50;;;25.02;69.26
28797;BME280;24974;54.444;18.560;2022-08-25T08:25:11;101969.66;;;24.54;70.75
28797;BME280;24974;54.444;18.560;2022-08-25T08:27:42;101971.53;;;24.69;70.21
28797;BME280;24974;54.444;18.560;2022-08-25T08:30:15;101974.16;;;24.81;69.33
28797;BME280;24974;54.444;18.560;2022-08-25T08:32:46;101966.38;;;24.71;69.94
28797;BME280;24974;54.444;18.560;2022-08-25T08:35:19;101964.88;;;24.54;70.16
28797;BME280;24974;54.444;18.560;2022-08-25T08:37:50;101955.72;;;24.38;70.73
28797;BME280;24974;54.444;18.560;2022-08-25T08:40:21;101956.75;;;24.30;71.21
28797;BME280;24974;54.444;18.560;2022-08-25T08:43:05;101955.09;;;24.06;72.10
28797;BME280;24974;54.444;18.560;2022-08-25T08:45:49;101953.06;;;24.26;71.17
28797;BME280;24974;54.444;18.560;2022-08-25T08:54:13;101950.75;;;24.09;72.48
28797;BME280;24974;54.444;18.560;2022-08-25T08:56:50;101951.56;;;24.09;72.69
28797;BME280;24974;54.444;18.560;2022-08-25T08:59:27;101955.72;;;23.77;73.52
28797;BME280;24974;54.444;18.560;2022-08-25T09:02:03;101952.41;;;23.90;73.12
28797;BME280;24974;54.444;18.560;2022-08-25T09:04:48;101950.38;;;23.71;73.69
28797;BME280;24974;54.444;18.560;2022-08-25T09:07:28;101946.84;;;23.75;74.11
28797;BME280;24974;54.444;18.560;2022-08-25T09:10:01;101938.72;;;23.69;74.61
28797;BME280;24974;54.444;18.560;2022-08-25T09:15:35;101929.84;;;23.87;73.39
28797;BME280;24974;54.444;18.560;2022-08-25T09:21:33;101916.53;;;23.45;74.76
28797;BME280;24974;54.444;18.560;2022-08-25T09:27:12;101919.28;;;23.99;73.13
28797;BME280;24974;54.444;18.560;2022-08-25T09:32:25;101910.63;;;23.89;73.43
28797;BME280;24974;54.444;18.560;2022-08-25T09:34:57;101910.28;;;23.71;73.88
28797;BME280;24974;54.444;18.560;2022-08-25T09:37:29;101910.34;;;23.94;72.94
28797;BME280;24974;54.444;18.560;2022-08-25T09:40:00;101907.22;;;23.99;72.73
28797;BME280;24974;54.444;18.560;2022-08-25T09:42:51;101914.44;;;24.19;71.92
28797;BME280;24974;54.444;18.560;2022-08-25T09:45:42;101904.94;;;24.27;71.71
28797;BME280;24974;54.444;18.560;2022-08-25T09:48:26;101907.56;;;24.17;72.34
28797;BME280;24974;54.444;18.560;2022-08-25T09:51:01;101900.72;;;24.14;71.90
28797;BME280;24974;54.444;18.560;2022-08-25T09:53:50;101892.47;;;24.25;71.42
28797;BME280;24974;54.444;18.560;2022-08-25T09:56:30;101892.75;;;24.20;71.36
28797;BME280;24974;54.444;18.560;2022-08-25T10:01:56;101875.19;;;24.23;71.60
28797;BME280;24974;54.444;18.560;2022-08-25T10:04:30;101874.81;;;24.47;70.83
28797;BME280;24974;54.444;18.560;2022-08-25T10:07:06;101879.38;;;24.55;70.06
28797;BME280;24974;54.444;18.560;2022-08-25T10:09:57;101886.13;;;24.51;70.60
28797;BME280;24974;54.444;18.560;2022-08-25T10:12:39;101873.94;;;24.43;70.84
28797;BME280;24974;54.444;18.560;2022-08-25T10:15:20;101871.81;;;24.60;69.97
28797;BME280;24974;54.444;18.560;2022-08-25T10:17:51;101865.50;;;25.19;68.40
28797;BME280;24974;54.444;18.560;2022-08-25T10:20:25;101867.13;;;25.20;67.82
28797;BME280;24974;54.444;18.560;2022-08-25T10:23:12;101854.84;;;25.05;68.63
28797;BME280;24974;54.444;18.560;2022-08-25T10:25:47;101857.28;;;25.07;68.30
28797;BME280;24974;54.444;18.560;2022-08-25T10:31:25;101846.56;;;24.90;68.54
28797;BME280;24974;54.444;18.560;2022-08-25T10:56:48;101805.47;;;25.42;66.43
28797;BME280;24974;54.444;18.560;2022-08-25T11:05:23;101834.22;;;25.95;65.26
28797;BME280;24974;54.444;18.560;2022-08-25T11:08:07;101829.31;;;25.85;65.45
28797;BME280;24974;54.444;18.560;2022-08-25T11:10:45;101830.91;;;26.27;64.20
28797;BME280;24974;54.444;18.560;2022-08-25T11:13:18;101835.22;;;25.73;66.26
28797;BME280;24974;54.444;18.560;2022-08-25T11:16:09;101833.81;;;25.93;65.31
28797;BME280;24974;54.444;18.560;2022-08-25T11:18:52;101834.75;;;26.52;63.73
28797;BME280;24974;54.444;18.560;2022-08-25T11:21:33;101829.28;;;26.73;63.32
28797;BME280;24974;54.444;18.560;2022-08-25T11:27:16;101827.09;;;26.53;63.68
28797;BME280;24974;54.444;18.560;2022-08-25T11:30:08;101822.38;;;26.19;64.07
28797;BME280;24974;54.444;18.560;2022-08-25T11:32:44;101822.09;;;26.32;64.14
28797;BME280;24974;54.444;18.560;2022-08-25T11:35:19;101825.88;;;26.06;64.56
28797;BME280;24974;54.444;18.560;2022-08-25T11:49:49;101820.25;;;27.12;61.42
28797;BME280;24974;54.444;18.560;2022-08-25T11:55:18;101811.59;;;27.67;60.16
28797;BME280;24974;54.444;18.560;2022-08-25T11:57:52;101812.09;;;28.40;57.78
28797;BME280;24974;54.444;18.560;2022-08-25T12:00:42;101803.13;;;27.71;59.36
28797;BME280;24974;54.444;18.560;2022-08-25T12:11:46;101806.28;;;26.68;62.99
28797;BME280;24974;54.444;18.560;2022-08-25T12:27:37;101817.38;;;26.43;63.41
28797;BME280;24974;54.444;18.560;2022-08-25T12:33:16;101821.19;;;26.20;64.17
28797;BME280;24974;54.444;18.560;2022-08-25T12:35:59;101823.59;;;26.18;64.96
28797;BME280;24974;54.444;18.560;2022-08-25T12:38:45;101823.44;;;26.01;65.10
28797;BME280;24974;54.444;18.560;2022-08-25T12:41:19;101821.50;;;26.08;65.02
28797;BME280;24974;54.444;18.560;2022-08-25T12:43:53;101816.25;;;25.70;66.03
28797;BME280;24974;54.444;18.560;2022-08-25T12:46:42;101806.81;;;25.88;65.73
28797;BME280;24974;54.444;18.560;2022-08-25T12:51:54;101807.44;;;26.12;65.10
28797;BME280;24974;54.444;18.560;2022-08-25T12:54:51;101810.53;;;26.40;63.98
28797;BME280;24974;54.444;18.560;2022-08-25T12:57:44;101812.59;;;26.51;63.29
28797;BME280;24974;54.444;18.560;2022-08-25T13:00:32;101811.25;;;26.34;63.83
28797;BME280;24974;54.444;18.560;2022-08-25T13:03:17;101818.69;;;26.08;64.71
28797;BME280;24974;54.444;18.560;2022-08-25T13:06:07;101810.34;;;25.78;65.71
28797;BME280;24974;54.444;18.560;2022-08-25T13:09:22;101810.56;;;26.03;65.28
28797;BME280;24974;54.444;18.560;2022-08-25T13:14:42;101802.28;;;26.72;62.62
28797;BME280;24974;54.444;18.560;2022-08-25T13:17:27;101800.53;;;27.19;61.29
28797;BME280;24974;54.444;18.560;2022-08-25T13:20:14;101793.09;;;28.02;59.14
28797;BME280;24974;54.444;18.560;2022-08-25T13:22:48;101793.88;;;28.27;58.51
28797;BME280;24974;54.444;18.560;2022-08-25T13:25:22;101795.81;;;28.87;56.86
28797;BME280;24974;54.444;18.560;2022-08-25T13:28:00;101792.56;;;29.07;55.68
28797;BME280;24974;54.444;18.560;2022-08-25T13:30:35;101785.69;;;29.08;55.43
28797;BME280;24974;54.444;18.560;2022-08-25T13:33:20;101782.97;;;27.72;58.54
28797;BME280;24974;54.444;18.560;2022-08-25T13:35:54;101790.25;;;28.20;57.80
28797;BME280;24974;54.444;18.560;2022-08-25T13:38:47;101788.22;;;28.63;56.57
28797;BME280;24974;54.444;18.560;2022-08-25T13:41:22;101781.25;;;29.07;55.08
28797;BME280;24974;54.444;18.560;2022-08-25T13:43:56;101768.09;;;29.52;54.44
28797;BME280;24974;54.444;18.560;2022-08-25T13:46:28;101767.47;;;29.86;53.56
28797;BME280;24974;54.444;18.560;2022-08-25T13:49:04;101766.91;;;29.42;54.05
28797;BME280;24974;54.444;18.560;2022-08-25T13:51:37;101772.94;;;29.51;53.63
28797;BME280;24974;54.444;18.560;2022-08-25T13:54:28;101770.72;;;29.07;55.02
28797;BME280;24974;54.444;18.560;2022-08-25T13:57:05;101761.97;;;28.59;55.92
28797;BME280;24974;54.444;18.560;2022-08-25T13:59:38;101764.41;;;27.96;57.66
28797;BME280;24974;54.444;18.560;2022-08-25T14:02:11;101757.16;;;28.24;56.94
28797;BME280;24974;54.444;18.560;2022-08-25T14:04:45;101760.38;;;27.86;57.92
28797;BME280;24974;54.444;18.560;2022-08-25T14:10:08;101767.72;;;26.90;61.40
28797;BME280;24974;54.444;18.560;2022-08-25T14:12:46;101758.38;;;26.71;61.28
28797;BME280;24974;54.444;18.560;2022-08-25T14:18:05;101759.22;;;26.86;61.39
28797;BME280;24974;54.444;18.560;2022-08-25T14:20:43;101757.25;;;26.28;62.95
28797;BME280;24974;54.444;18.560;2022-08-25T14:23:20;101761.97;;;26.68;61.68
28797;BME280;24974;54.444;18.560;2022-08-25T14:25:54;101754.47;;;27.01;60.87
28797;BME280;24974;54.444;18.560;2022-08-25T14:28:27;101757.63;;;26.85;61.62
28797;BME280;24974;54.444;18.560;2022-08-25T14:31:12;101756.03;;;26.95;61.68
28797;BME280;24974;54.444;18.560;2022-08-25T14:33:57;101757.44;;;26.53;61.78
28797;BME280;24974;54.444;18.560;2022-08-25T14:36:29;101753.59;;;26.86;61.52
28797;BME280;24974;54.444;18.560;2022-08-25T14:39:02;101750.97;;;27.29;61.06
28797;BME280;24974;54.444;18.560;2022-08-25T14:41:38;101741.09;;;26.84;61.94
28797;BME280;24974;54.444;18.560;2022-08-25T14:44:11;101741.38;;;26.61;62.41
28797;BME280;24974;54.444;18.560;2022-08-25T14:46:51;101743.13;;;26.90;61.69
28797;BME280;24974;54.444;18.560;2022-08-25T14:49:37;101738.16;;;26.62;62.03
28797;BME280;24974;54.444;18.560;2022-08-25T14:52:18;101734.88;;;26.49;62.38
28797;BME280;24974;54.444;18.560;2022-08-25T14:54:50;101736.44;;;26.43;62.77
28797;BME280;24974;54.444;18.560;2022-08-25T14:57:21;101734.13;;;26.05;64.29
28797;BME280;24974;54.444;18.560;2022-08-25T14:59:52;101738.78;;;26.38;62.92
28797;BME280;24974;54.444;18.560;2022-08-25T15:02:23;101741.06;;;26.18;63.88
28797;BME280;24974;54.444;18.560;2022-08-25T15:04:57;101737.38;;;26.07;64.05
28797;BME280;24974;54.444;18.560;2022-08-25T15:07:31;101742.72;;;25.75;64.75
28797;BME280;24974;54.444;18.560;2022-08-25T15:10:21;101738.72;;;25.38;65.77
28797;BME280;24974;54.444;18.560;2022-08-25T15:12:52;101741.63;;;25.49;65.55
28797;BME280;24974;54.444;18.560;2022-08-25T15:15:23;101739.69;;;25.57;65.54
28797;BME280;24974;54.444;18.560;2022-08-25T15:17:56;101734.69;;;25.39;66.11
28797;BME280;24974;54.444;18.560;2022-08-25T15:20:27;101733.59;;;25.10;67.10
28797;BME280;24974;54.444;18.560;2022-08-25T15:22:58;101731.88;;;25.39;66.15
28797;BME280;24974;54.444;18.560;2022-08-25T15:25:29;101730.06;;;25.21;66.72
28797;BME280;24974;54.444;18.560;2022-08-25T15:28:03;101729.69;;;25.59;65.91
28797;BME280;24974;54.444;18.560;2022-08-25T15:30:35;101736.44;;;25.18;66.89
28797;BME280;24974;54.444;18.560;2022-08-25T15:33:06;101724.56;;;25.01;67.75
28797;BME280;24974;54.444;18.560;2022-08-25T15:35:36;101728.31;;;25.09;67.64
28797;BME280;24974;54.444;18.560;2022-08-25T15:38:07;101721.63;;;24.87;68.24
28797;BME280;24974;54.444;18.560;2022-08-25T15:40:39;101716.38;;;25.56;65.85
28797;BME280;24974;54.444;18.560;2022-08-25T15:43:10;101715.94;;;25.51;66.02
28797;BME280;24974;54.444;18.560;2022-08-25T15:45:41;101708.91;;;25.71;65.67
28797;BME280;24974;54.444;18.560;2022-08-25T15:48:12;101711.28;;;25.69;65.68
28797;BME280;24974;54.444;18.560;2022-08-25T15:50:43;101704.59;;;25.84;65.25
28797;BME280;24974;54.444;18.560;2022-08-25T15:53:13;101701.00;;;25.87;65.43
28797;BME280;24974;54.444;18.560;2022-08-25T15:55:44;101701.38;;;25.45;67.13
28797;BME280;24974;54.444;18.560;2022-08-25T15:58:15;101702.34;;;25.23;67.29
28797;BME280;24974;54.444;18.560;2022-08-25T16:00:46;101692.84;;;25.01;67.92
28797;BME280;24974;54.444;18.560;2022-08-25T16:03:17;101691.69;;;25.39;66.96
28797;BME280;24974;54.444;18.560;2022-08-25T16:05:48;101689.19;;;25.34;67.17
28797;BME280;24974;54.444;18.560;2022-08-25T16:08:19;101693.91;;;25.19;67.61
28797;BME280;24974;54.444;18.560;2022-08-25T16:10:50;101682.59;;;25.16;67.66
28797;BME280;24974;54.444;18.560;2022-08-25T16:13:21;101677.31;;;25.10;68.03
28797;BME280;24974;54.444;18.560;2022-08-25T16:15:53;101675.66;;;24.76;69.02
28797;BME280;24974;54.444;18.560;2022-08-25T16:18:24;101676.66;;;25.24;67.80
28797;BME280;24974;54.444;18.560;2022-08-25T16:20:55;101677.34;;;25.14;68.12
28797;BME280;24974;54.444;18.560;2022-08-25T16:23:26;101668.22;;;24.91;68.95
28797;BME280;24974;54.444;18.560;2022-08-25T16:25:57;101685.56;;;24.96;68.63
28797;BME280;24974;54.444;18.560;2022-08-25T16:28:28;101675.47;;;24.92;68.62
28797;BME280;24974;54.444;18.560;2022-08-25T16:30:58;101669.16;;;24.68;69.15
28797;BME280;24974;54.444;18.560;2022-08-25T16:33:30;101673.81;;;24.87;68.88
28797;BME280;24974;54.444;18.560;2022-08-25T16:36:08;101673.03;;;24.90;68.59
28797;BME280;24974;54.444;18.560;2022-08-25T16:38:41;101669.50;;;24.97;68.48
28797;BME280;24974;54.444;18.560;2022-08-25T16:41:19;101669.03;;;24.91;68.73
28797;BME280;24974;54.444;18.560;2022-08-25T16:43:50;101672.91;;;24.79;68.33
28797;BME280;24974;54.444;18.560;2022-08-25T16:46:21;101665.63;;;24.75;68.05
28797;BME280;24974;54.444;18.560;2022-08-25T16:48:52;101669.56;;;24.70;68.17
28797;BME280;24974;54.444;18.560;2022-08-25T16:51:23;101672.81;;;24.72;68.09
28797;BME280;24974;54.444;18.560;2022-08-25T16:53:54;101658.25;;;24.63;68.41
28797;BME280;24974;54.444;18.560;2022-08-25T16:56:43;101663.34;;;24.54;68.92
28797;BME280;24974;54.444;18.560;2022-08-25T16:59:14;101654.19;;;24.61;68.74
28797;BME280;24974;54.444;18.560;2022-08-25T17:01:45;101660.28;;;24.36;69.50
28797;BME280;24974;54.444;18.560;2022-08-25T17:04:15;101659.38;;;24.59;69.29
28797;BME280;24974;54.444;18.560;2022-08-25T17:06:47;101671.09;;;24.34;69.73
28797;BME280;24974;54.444;18.560;2022-08-25T17:09:18;101668.88;;;24.20;70.06
28797;BME280;24974;54.444;18.560;2022-08-25T17:11:49;101667.97;;;24.39;69.39
28797;BME280;24974;54.444;18.560;2022-08-25T17:14:22;101662.41;;;24.16;70.00
28797;BME280;24974;54.444;18.560;2022-08-25T17:16:53;101660.81;;;24.19;69.92
28797;BME280;24974;54.444;18.560;2022-08-25T17:19:24;101658.88;;;24.23;69.85
28797;BME280;24974;54.444;18.560;2022-08-25T17:21:55;101660.16;;;24.29;69.97
28797;BME280;24974;54.444;18.560;2022-08-25T17:24:27;101659.75;;;24.00;70.73
28797;BME280;24974;54.444;18.560;2022-08-25T17:26:59;101654.94;;;24.27;70.16
28797;BME280;24974;54.444;18.560;2022-08-25T17:29:31;101657.69;;;24.24;70.14
28797;BME280;24974;54.444;18.560;2022-08-25T17:32:03;101661.91;;;24.37;69.67
28797;BME280;24974;54.444;18.560;2022-08-25T17:34:34;101662.63;;;24.31;70.13
28797;BME280;24974;54.444;18.560;2022-08-25T17:37:06;101670.16;;;24.26;70.28
28797;BME280;24974;54.444;18.560;2022-08-25T17:39:36;101662.56;;;24.00;71.37
28797;BME280;24974;54.444;18.560;2022-08-25T17:42:07;101672.47;;;24.21;70.74
28797;BME280;24974;54.444;18.560;2022-08-25T17:44:38;101667.22;;;24.16;70.67
28797;BME280;24974;54.444;18.560;2022-08-25T17:47:10;101663.53;;;24.38;70.05
28797;BME280;24974;54.444;18.560;2022-08-25T17:49:41;101665.34;;;24.27;70.43
28797;BME280;24974;54.444;18.560;2022-08-25T17:52:11;101669.31;;;23.96;71.41
28797;BME280;24974;54.444;18.560;2022-08-25T17:54:42;101661.38;;;24.02;71.32
28797;BME280;24974;54.444;18.560;2022-08-25T17:57:13;101666.06;;;23.94;71.82
28797;BME280;24974;54.444;18.560;2022-08-25T17:59:45;101667.00;;;24.02;71.41
28797;BME280;24974;54.444;18.560;2022-08-25T18:02:16;101670.19;;;24.00;71.46
28797;BME280;24974;54.444;18.560;2022-08-25T18:04:47;101668.13;;;24.23;70.50
28797;BME280;24974;54.444;18.560;2022-08-25T18:07:18;101663.31;;;23.97;71.25
28797;BME280;24974;54.444;18.560;2022-08-25T18:09:48;101666.44;;;24.19;70.59
28797;BME280;24974;54.444;18.560;2022-08-25T18:12:19;101662.44;;;24.20;70.45
28797;BME280;24974;54.444;18.560;2022-08-25T18:14:50;101666.75;;;23.87;71.54
28797;BME280;24974;54.444;18.560;2022-08-25T18:17:21;101663.78;;;24.03;70.96
28797;BME280;24974;54.444;18.560;2022-08-25T18:19:52;101666.38;;;23.89;71.38
28797;BME280;24974;54.444;18.560;2022-08-25T18:22:23;101667.91;;;24.09;70.79
28797;BME280;24974;54.444;18.560;2022-08-25T18:24:53;101660.81;;;24.19;70.65
28797;BME280;24974;54.444;18.560;2022-08-25T18:27:25;101662.19;;;24.02;71.19
28797;BME280;24974;54.444;18.560;2022-08-25T18:29:57;101660.41;;;23.90;71.65
28797;BME280;24974;54.444;18.560;2022-08-25T18:32:28;101660.44;;;23.94;71.33
28797;BME280;24974;54.444;18.560;2022-08-25T18:34:59;101662.66;;;23.81;71.98
28797;BME280;24974;54.444;18.560;2022-08-25T18:37:30;101667.69;;;23.95;71.41
28797;BME280;24974;54.444;18.560;2022-08-25T18:40:19;101661.41;;;23.79;72.07
28797;BME280;24974;54.444;18.560;2022-08-25T18:42:58;101663.25;;;23.94;71.38
28797;BME280;24974;54.444;18.560;2022-08-25T18:45:38;101668.00;;;23.90;71.52
28797;BME280;24974;54.444;18.560;2022-08-25T18:48:09;101660.72;;;23.85;71.49
28797;BME280;24974;54.444;18.560;2022-08-25T18:50:42;101664.94;;;23.98;71.05
28797;BME280;24974;54.444;18.560;2022-08-25T18:53:13;101660.09;;;23.72;71.89
28797;BME280;24974;54.444;18.560;2022-08-25T18:55:44;101655.09;;;23.85;71.55
28797;BME280;24974;54.444;18.560;2022-08-25T18:58:15;101661.53;;;23.86;71.36
28797;BME280;24974;54.444;18.560;2022-08-25T19:00:46;101657.97;;;23.89;71.72
28797;BME280;24974;54.444;18.560;2022-08-25T19:03:19;101660.72;;;23.85;72.14
28797;BME280;24974;54.444;18.560;2022-08-25T19:05:54;101660.94;;;23.99;71.73
28797;BME280;24974;54.444;18.560;2022-08-25T19:08:25;101657.66;;;23.94;71.77
28797;BME280;24974;54.444;18.560;2022-08-25T19:10:56;101659.22;;;23.91;72.07
28797;BME280;24974;54.444;18.560;2022-08-25T19:13:27;101665.03;;;23.79;72.17
28797;BME280;24974;54.444;18.560;2022-08-25T19:16:52;101667.09;;;23.59;73.10